Kake, AK

2:29 PM AKDT on March 28, 2017 (GMT -0800)
Kake

Weather History for PAFE - January, 2013

Change the Weather History Date:

Wednesday, January 23, 2013

  Actual Average Record
Temperature  
Mean Temperature 38 °F -  
Max Temperature 39 °F 33 °F 46 °F (2015)
Min Temperature 37 °F 27 °F 12 °F (1999)
Degree Days  
Heating Degree Days 27    
Moisture  
Dew Point 35 °F    
Average Humidity 87    
Maximum Humidity 93    
Minimum Humidity 81    
Precipitation  
Precipitation 0.17 in - - ()
Sea Level Pressure  
Sea Level Pressure 29.67 in    
Wind  
Wind Speed 9 mph (ESE)    
Max Wind Speed 13 mph    
Max Gust Speed 20 mph    
Visibility 10 miles    
Events      
Averages and records for this station are not official NWS values.
T = Trace of Precipitation, MM = Missing Value Source: NWS Daily Summary

Daily Weather History Graph

Daily Weather History Graph

Search for Another Location

Airport or City:

Trip Planner

Search our weather history database for the weather conditions in past years. The results will help you decide how hot, cold, wet, or windy it might be!

Date:

Astronomy

Jan. 23, 2013 Rise Set
Actual Time 8:10 AM AKST 4:05 PM AKST
Civil Twilight 7:25 AM AKST 4:50 PM AKST
Nautical Twilight 6:38 AM AKST 5:37 PM AKST
Astronomical Twilight 5:53 AM AKST 6:22 PM AKST
Moon 1:11 PM AKST (1/23) 5:38 AM AKST (1/23)
Length of Visible Light 9h 24m
Length of Day
7h 55m
Waxing Gibbous, 90% of the Moon is Illuminated
Jan 23
Waxing Gibbous
Jan 26
Full
Feb 3
Last Quarter
Feb 9
New
Feb 17
First Quarter

Hourly Weather History & Observations

Time (AKST) Temp. Windchill Dew Point Humidity Pressure Visibility Wind Dir Wind Speed Gust Speed Precip Events Conditions
12:16 AM 39.2 °F 33.6 °F 35.6 °F 87% 29.65 in 10.0 mi ESE 8.1 mph - 0.01 in   Overcast
12:36 AM 39.2 °F 33.6 °F 35.6 °F 87% 29.65 in 10.0 mi ESE 8.1 mph - 0.03 in   Overcast
12:56 AM 39.2 °F 33.0 °F 35.6 °F 87% 29.65 in 10.0 mi ESE 9.2 mph - 0.05 in   Overcast
1:16 AM 39.2 °F 33.0 °F 35.6 °F 87% 29.64 in 10.0 mi ESE 9.2 mph - 0.02 in   Overcast
1:36 AM 39.2 °F 34.2 °F 35.6 °F 87% 29.64 in 10.0 mi ESE 6.9 mph - 0.03 in   Overcast
1:56 AM 37.4 °F 31.4 °F 33.8 °F 87% 29.65 in 10.0 mi East 8.1 mph - 0.03 in   Overcast
2:16 AM 37.4 °F 31.4 °F 33.8 °F 87% 29.65 in 10.0 mi ESE 8.1 mph - 0.02 in   Overcast
2:36 AM 37.4 °F 31.4 °F 33.8 °F 87% 29.64 in 10.0 mi East 8.1 mph - 0.03 in   Overcast
2:56 AM 37.4 °F 31.4 °F 33.8 °F 87% 29.64 in 10.0 mi ESE 8.1 mph - 0.03 in   Overcast
3:16 AM 37.4 °F 30.3 °F 35.6 °F 93% 29.64 in 10.0 mi ESE 10.4 mph - N/A   Overcast
3:36 AM 37.4 °F 31.4 °F 35.6 °F 93% 29.64 in 10.0 mi ESE 8.1 mph - N/A   Overcast
3:56 AM 37.4 °F 30.3 °F 35.6 °F 93% 29.64 in 10.0 mi ESE 10.4 mph - N/A   Overcast
4:16 AM 39.2 °F 33.0 °F 33.8 °F 81% 29.64 in 10.0 mi ESE 9.2 mph 16.1 mph N/A   Overcast
4:36 AM 39.2 °F 33.6 °F 33.8 °F 81% 29.64 in 10.0 mi ESE 8.1 mph - N/A   Overcast
4:56 AM 39.2 °F 33.0 °F 35.6 °F 87% 29.64 in 10.0 mi East 9.2 mph - N/A   Overcast
5:16 AM 37.4 °F 29.8 °F 35.6 °F 93% 29.65 in 10.0 mi ESE 11.5 mph - 0.01 in   Overcast
5:36 AM 39.2 °F 33.0 °F 35.6 °F 87% 29.65 in 10.0 mi ESE 9.2 mph - 0.01 in   Overcast
5:56 AM 39.2 °F 32.5 °F 35.6 °F 87% 29.65 in 10.0 mi ESE 10.4 mph - 0.01 in   Overcast
6:16 AM 39.2 °F 32.0 °F 35.6 °F 87% 29.64 in 10.0 mi ESE 11.5 mph 19.6 mph N/A   Overcast
6:36 AM 39.2 °F 32.5 °F 35.6 °F 87% 29.64 in 10.0 mi East 10.4 mph 18.4 mph N/A   Overcast
6:56 AM 39.2 °F 32.0 °F 35.6 °F 87% 29.64 in 10.0 mi ESE 11.5 mph - N/A   Overcast
7:16 AM 39.2 °F 31.6 °F 35.6 °F 87% 29.65 in 10.0 mi East 12.7 mph - N/A   Overcast
7:36 AM 39.2 °F 32.5 °F 35.6 °F 87% 29.65 in 10.0 mi ESE 10.4 mph - N/A   Overcast
7:56 AM 39.2 °F 32.0 °F 35.6 °F 87% 29.65 in 10.0 mi East 11.5 mph - N/A   Overcast
8:16 AM 39.2 °F 33.6 °F 35.6 °F 87% 29.65 in 8.0 mi ESE 8.1 mph - 0.01 in   Overcast
8:36 AM 39.2 °F 35.0 °F 35.6 °F 87% 29.66 in 5.0 mi South 5.8 mph - 0.02 in   Overcast
8:56 AM 39.2 °F 34.2 °F 35.6 °F 87% 29.66 in 9.0 mi ESE 6.9 mph - 0.03 in   Overcast
9:16 AM 39.2 °F 33.6 °F 35.6 °F 87% 29.66 in 10.0 mi ESE 8.1 mph - N/A   Mostly Cloudy
9:36 AM 39.2 °F 33.6 °F 35.6 °F 87% 29.66 in 10.0 mi ESE 8.1 mph - N/A   Overcast
9:56 AM 39.2 °F 34.2 °F 35.6 °F 87% 29.66 in 10.0 mi ESE 6.9 mph - N/A   Mostly Cloudy
10:16 AM 39.2 °F 33.0 °F 35.6 °F 87% 29.67 in 10.0 mi ESE 9.2 mph - N/A   Mostly Cloudy
10:36 AM 39.2 °F 33.0 °F 35.6 °F 87% 29.67 in 10.0 mi ESE 9.2 mph - N/A   Overcast
10:56 AM 39.2 °F 34.2 °F 35.6 °F 87% 29.67 in 10.0 mi ESE 6.9 mph 16.1 mph N/A   Overcast
11:16 AM 39.2 °F 34.2 °F 35.6 °F 87% 29.67 in 10.0 mi ESE 6.9 mph - N/A   Overcast
11:36 AM 39.2 °F 33.6 °F 35.6 °F 87% 29.67 in 10.0 mi ESE 8.1 mph - N/A   Overcast
11:56 AM 39.2 °F 33.0 °F 35.6 °F 87% 29.66 in 10.0 mi ESE 9.2 mph - N/A   Overcast
12:16 PM 39.2 °F 33.6 °F 35.6 °F 87% 29.66 in 10.0 mi ESE 8.1 mph - N/A   Overcast
12:36 PM 39.2 °F 32.5 °F 35.6 °F 87% 29.65 in 10.0 mi ESE 10.4 mph - N/A   Overcast
12:56 PM 39.2 °F 32.5 °F 35.6 °F 87% 29.65 in 10.0 mi ESE 10.4 mph - N/A   Overcast
1:16 PM 39.2 °F 32.0 °F 35.6 °F 87% 29.65 in 10.0 mi ESE 11.5 mph 18.4 mph N/A   Overcast
1:36 PM 39.2 °F 33.0 °F 35.6 °F 87% 29.65 in 10.0 mi ESE 9.2 mph - N/A   Mostly Cloudy
1:56 PM 39.2 °F 32.5 °F 35.6 °F 87% 29.64 in 10.0 mi ESE 10.4 mph 16.1 mph N/A   Overcast
2:16 PM 39.2 °F 33.0 °F 35.6 °F 87% 29.64 in 10.0 mi ESE 9.2 mph - N/A   Overcast
2:36 PM 39.2 °F 31.6 °F 35.6 °F 87% 29.64 in 10.0 mi ESE 12.7 mph - N/A   Overcast
2:56 PM 39.2 °F 32.0 °F 33.8 °F 81% 29.64 in 10.0 mi ESE 11.5 mph 19.6 mph N/A   Overcast
3:16 PM 39.2 °F 33.0 °F 35.6 °F 87% 29.65 in 10.0 mi ESE 9.2 mph - N/A   Overcast
3:36 PM 39.2 °F 32.5 °F 33.8 °F 81% 29.65 in 10.0 mi ESE 10.4 mph 18.4 mph N/A   Overcast
3:56 PM 39.2 °F 32.0 °F 33.8 °F 81% 29.65 in 10.0 mi ESE 11.5 mph 16.1 mph N/A   Overcast
4:16 PM 39.2 °F 33.6 °F 33.8 °F 81% 29.65 in 10.0 mi ESE 8.1 mph 16.1 mph N/A   Overcast
4:36 PM 39.2 °F 33.0 °F 33.8 °F 81% 29.66 in 10.0 mi ESE 9.2 mph - N/A   Overcast
4:56 PM 37.4 °F 30.3 °F 33.8 °F 87% 29.66 in 10.0 mi ESE 10.4 mph - N/A   Overcast
5:16 PM 37.4 °F 29.3 °F 33.8 °F 87% 29.66 in 10.0 mi ESE 12.7 mph 17.3 mph N/A   Overcast
5:36 PM 37.4 °F 30.8 °F 33.8 °F 87% 29.66 in 10.0 mi ESE 9.2 mph - N/A   Overcast
5:56 PM 37.4 °F 30.8 °F 33.8 °F 87% 29.67 in 10.0 mi ESE 9.2 mph - N/A   Overcast
6:16 PM 37.4 °F 31.4 °F 33.8 °F 87% 29.67 in 10.0 mi ESE 8.1 mph - N/A   Overcast
6:36 PM 37.4 °F 30.8 °F 33.8 °F 87% 29.68 in 10.0 mi ESE 9.2 mph - N/A   Overcast
6:56 PM 37.4 °F 30.3 °F 35.6 °F 93% 29.68 in 10.0 mi SE 10.4 mph 16.1 mph N/A   Overcast
7:16 PM 37.4 °F 29.8 °F 35.6 °F 93% 29.69 in 10.0 mi ESE 11.5 mph - 0.01 in   Overcast
7:36 PM 37.4 °F 29.8 °F 33.8 °F 87% 29.69 in 10.0 mi ESE 11.5 mph 16.1 mph 0.02 in   Overcast
7:56 PM 37.4 °F 31.4 °F 33.8 °F 87% 29.70 in 10.0 mi SE 8.1 mph - 0.02 in   Overcast
8:16 PM 37.4 °F 30.3 °F 33.8 °F 87% 29.71 in 10.0 mi SE 10.4 mph - N/A   Overcast
8:36 PM 37.4 °F 31.4 °F 33.8 °F 87% 29.71 in 10.0 mi SE 8.1 mph - N/A   Overcast
8:56 PM 37.4 °F 30.8 °F 33.8 °F 87% 29.72 in 10.0 mi ESE 9.2 mph - N/A   Overcast
9:16 PM 37.4 °F 29.8 °F 35.6 °F 93% 29.72 in 10.0 mi ESE 11.5 mph - N/A   Overcast
9:36 PM 37.4 °F 30.3 °F 35.6 °F 93% 29.73 in 10.0 mi SE 10.4 mph - N/A   Overcast
9:56 PM 37.4 °F 30.8 °F 35.6 °F 93% 29.73 in 10.0 mi SE 9.2 mph - N/A   Overcast
10:16 PM 37.4 °F 30.3 °F 35.6 °F 93% 29.74 in 10.0 mi SE 10.4 mph 16.1 mph N/A   Overcast
10:36 PM 37.4 °F 29.8 °F 35.6 °F 93% 29.75 in 10.0 mi ESE 11.5 mph - N/A   Mostly Cloudy
10:56 PM 37.4 °F 30.3 °F 35.6 °F 93% 29.75 in 10.0 mi ESE 10.4 mph - N/A   Overcast
11:16 PM 39.2 °F 33.0 °F 35.6 °F 87% 29.76 in 10.0 mi ESE 9.2 mph - N/A   Overcast
11:36 PM 37.4 °F 31.4 °F 35.6 °F 93% 29.76 in 10.0 mi ESE 8.1 mph - N/A   Overcast
11:56 PM 39.2 °F 33.6 °F 35.6 °F 87% 29.77 in 10.0 mi ESE 8.1 mph - N/A   Overcast